sensor_id;sensor_type;location;lat;lon;timestamp;P1;durP1;ratioP1;P2;durP2;ratioP2
7515;SDS011;3799;47.184;8.538;2023-08-20T00:02:04;10.68;;;4.00;;
7515;SDS011;3799;47.184;8.538;2023-08-20T00:04:45;6.63;;;3.55;;
7515;SDS011;3799;47.184;8.538;2023-08-20T00:07:30;9.13;;;4.05;;
7515;SDS011;3799;47.184;8.538;2023-08-20T00:10:04;9.65;;;4.05;;
7515;SDS011;3799;47.184;8.538;2023-08-20T00:12:39;7.10;;;3.42;;
7515;SDS011;3799;47.184;8.538;2023-08-20T00:15:24;8.05;;;3.85;;
7515;SDS011;3799;47.184;8.538;2023-08-20T00:18:28;9.73;;;3.72;;
7515;SDS011;3799;47.184;8.538;2023-08-20T00:21:05;8.38;;;4.05;;
7515;SDS011;3799;47.184;8.538;2023-08-20T00:23:46;9.82;;;4.13;;
7515;SDS011;3799;47.184;8.538;2023-08-20T00:29:01;12.15;;;3.90;;
7515;SDS011;3799;47.184;8.538;2023-08-20T00:32:00;6.13;;;3.90;;
7515;SDS011;3799;47.184;8.538;2023-08-20T00:34:33;13.30;;;3.70;;
7515;SDS011;3799;47.184;8.538;2023-08-20T00:37:29;8.75;;;4.13;;
7515;SDS011;3799;47.184;8.538;2023-08-20T00:40:19;11.60;;;4.03;;
7515;SDS011;3799;47.184;8.538;2023-08-20T00:42:52;7.45;;;3.63;;
7515;SDS011;3799;47.184;8.538;2023-08-20T00:45:22;5.25;;;3.40;;
7515;SDS011;3799;47.184;8.538;2023-08-20T00:47:58;10.00;;;4.20;;
7515;SDS011;3799;47.184;8.538;2023-08-20T00:50:37;8.35;;;3.75;;
7515;SDS011;3799;47.184;8.538;2023-08-20T00:53:19;6.28;;;3.67;;
7515;SDS011;3799;47.184;8.538;2023-08-20T00:55:56;7.20;;;3.65;;
7515;SDS011;3799;47.184;8.538;2023-08-20T00:58:45;5.68;;;3.55;;
7515;SDS011;3799;47.184;8.538;2023-08-20T01:01:21;7.10;;;3.80;;
7515;SDS011;3799;47.184;8.538;2023-08-20T01:03:50;6.60;;;3.78;;
7515;SDS011;3799;47.184;8.538;2023-08-20T01:12:02;12.35;;;4.05;;
7515;SDS011;3799;47.184;8.538;2023-08-20T01:14:34;5.30;;;3.83;;
7515;SDS011;3799;47.184;8.538;2023-08-20T01:17:43;10.57;;;4.43;;
7515;SDS011;3799;47.184;8.538;2023-08-20T01:20:15;6.80;;;3.83;;
7515;SDS011;3799;47.184;8.538;2023-08-20T01:23:21;9.20;;;4.13;;
7515;SDS011;3799;47.184;8.538;2023-08-20T01:26:25;9.68;;;3.72;;
7515;SDS011;3799;47.184;8.538;2023-08-20T01:29:02;9.20;;;3.88;;
7515;SDS011;3799;47.184;8.538;2023-08-20T01:31:34;7.22;;;4.20;;
7515;SDS011;3799;47.184;8.538;2023-08-20T01:34:05;5.47;;;3.80;;
7515;SDS011;3799;47.184;8.538;2023-08-20T01:36:43;9.57;;;3.92;;
7515;SDS011;3799;47.184;8.538;2023-08-20T01:39:15;12.57;;;4.13;;
7515;SDS011;3799;47.184;8.538;2023-08-20T01:41:53;6.82;;;3.95;;
7515;SDS011;3799;47.184;8.538;2023-08-20T01:44:34;7.90;;;3.80;;
7515;SDS011;3799;47.184;8.538;2023-08-20T01:47:08;8.43;;;3.78;;
7515;SDS011;3799;47.184;8.538;2023-08-20T01:49:51;6.72;;;3.85;;
7515;SDS011;3799;47.184;8.538;2023-08-20T01:52:26;6.78;;;3.67;;
7515;SDS011;3799;47.184;8.538;2023-08-20T01:55:04;9.60;;;3.85;;
7515;SDS011;3799;47.184;8.538;2023-08-20T01:57:32;9.88;;;3.88;;
7515;SDS011;3799;47.184;8.538;2023-08-20T02:00:19;5.25;;;3.55;;
7515;SDS011;3799;47.184;8.538;2023-08-20T02:03:11;5.35;;;3.85;;
7515;SDS011;3799;47.184;8.538;2023-08-20T02:06:08;7.45;;;3.60;;
7515;SDS011;3799;47.184;8.538;2023-08-20T02:11:05;5.72;;;3.28;;
7515;SDS011;3799;47.184;8.538;2023-08-20T02:13:37;8.68;;;4.00;;
7515;SDS011;3799;47.184;8.538;2023-08-20T02:16:21;6.93;;;3.45;;
7515;SDS011;3799;47.184;8.538;2023-08-20T02:18:49;6.22;;;3.17;;
7515;SDS011;3799;47.184;8.538;2023-08-20T02:21:39;9.65;;;3.95;;
7515;SDS011;3799;47.184;8.538;2023-08-20T02:24:09;5.72;;;3.85;;
7515;SDS011;3799;47.184;8.538;2023-08-20T02:26:52;7.13;;;3.53;;
7515;SDS011;3799;47.184;8.538;2023-08-20T02:29:30;9.07;;;4.00;;
7515;SDS011;3799;47.184;8.538;2023-08-20T02:32:14;8.02;;;4.35;;
7515;SDS011;3799;47.184;8.538;2023-08-20T02:34:50;9.10;;;3.78;;
7515;SDS011;3799;47.184;8.538;2023-08-20T02:37:20;5.72;;;3.45;;
7515;SDS011;3799;47.184;8.538;2023-08-20T02:39:50;6.47;;;4.38;;
7515;SDS011;3799;47.184;8.538;2023-08-20T02:42:26;6.38;;;3.90;;
7515;SDS011;3799;47.184;8.538;2023-08-20T02:45:06;6.50;;;3.92;;
7515;SDS011;3799;47.184;8.538;2023-08-20T02:47:44;9.13;;;3.92;;
7515;SDS011;3799;47.184;8.538;2023-08-20T02:50:22;5.72;;;3.47;;
7515;SDS011;3799;47.184;8.538;2023-08-20T02:52:52;6.78;;;4.30;;
7515;SDS011;3799;47.184;8.538;2023-08-20T02:55:50;7.57;;;4.30;;
7515;SDS011;3799;47.184;8.538;2023-08-20T02:58:22;10.35;;;4.20;;
7515;SDS011;3799;47.184;8.538;2023-08-20T03:01:04;7.85;;;3.90;;
7515;SDS011;3799;47.184;8.538;2023-08-20T03:03:32;7.00;;;3.60;;
7515;SDS011;3799;47.184;8.538;2023-08-20T03:06:43;7.30;;;3.30;;
7515;SDS011;3799;47.184;8.538;2023-08-20T03:09:17;8.48;;;3.70;;
7515;SDS011;3799;47.184;8.538;2023-08-20T03:11:44;7.43;;;3.72;;
7515;SDS011;3799;47.184;8.538;2023-08-20T03:14:13;6.65;;;3.60;;
7515;SDS011;3799;47.184;8.538;2023-08-20T03:16:40;5.93;;;3.50;;
7515;SDS011;3799;47.184;8.538;2023-08-20T03:19:19;7.82;;;4.20;;
7515;SDS011;3799;47.184;8.538;2023-08-20T03:21:54;6.43;;;3.65;;
7515;SDS011;3799;47.184;8.538;2023-08-20T03:24:47;8.38;;;4.03;;
7515;SDS011;3799;47.184;8.538;2023-08-20T03:27:31;11.57;;;4.65;;
7515;SDS011;3799;47.184;8.538;2023-08-20T03:30:03;6.82;;;4.13;;
7515;SDS011;3799;47.184;8.538;2023-08-20T03:32:48;6.43;;;4.00;;
7515;SDS011;3799;47.184;8.538;2023-08-20T03:35:27;5.93;;;3.63;;
7515;SDS011;3799;47.184;8.538;2023-08-20T03:38:08;6.10;;;3.80;;
7515;SDS011;3799;47.184;8.538;2023-08-20T03:40:45;7.68;;;4.60;;
7515;SDS011;3799;47.184;8.538;2023-08-20T03:43:19;9.38;;;4.18;;
7515;SDS011;3799;47.184;8.538;2023-08-20T03:46:04;7.68;;;3.83;;
7515;SDS011;3799;47.184;8.538;2023-08-20T03:48:58;7.60;;;3.90;;
7515;SDS011;3799;47.184;8.538;2023-08-20T03:51:30;10.00;;;3.70;;
7515;SDS011;3799;47.184;8.538;2023-08-20T03:54:08;7.80;;;3.90;;
7515;SDS011;3799;47.184;8.538;2023-08-20T03:56:42;5.00;;;4.00;;
7515;SDS011;3799;47.184;8.538;2023-08-20T03:59:27;5.10;;;3.78;;
7515;SDS011;3799;47.184;8.538;2023-08-20T04:02:17;7.18;;;4.20;;
7515;SDS011;3799;47.184;8.538;2023-08-20T04:04:44;7.10;;;4.15;;
7515;SDS011;3799;47.184;8.538;2023-08-20T04:07:15;6.38;;;4.05;;
7515;SDS011;3799;47.184;8.538;2023-08-20T04:10:19;9.85;;;4.47;;
7515;SDS011;3799;47.184;8.538;2023-08-20T04:12:59;7.18;;;4.00;;
7515;SDS011;3799;47.184;8.538;2023-08-20T04:15:33;7.95;;;3.88;;
7515;SDS011;3799;47.184;8.538;2023-08-20T04:18:03;7.88;;;4.75;;
7515;SDS011;3799;47.184;8.538;2023-08-20T04:20:35;8.77;;;4.25;;
7515;SDS011;3799;47.184;8.538;2023-08-20T04:23:03;6.78;;;4.35;;
7515;SDS011;3799;47.184;8.538;2023-08-20T04:25:40;8.00;;;4.40;;
7515;SDS011;3799;47.184;8.538;2023-08-20T04:28:17;5.95;;;4.10;;
7515;SDS011;3799;47.184;8.538;2023-08-20T04:31:02;7.40;;;4.15;;
7515;SDS011;3799;47.184;8.538;2023-08-20T04:33:39;9.23;;;3.80;;
7515;SDS011;3799;47.184;8.538;2023-08-20T04:36:28;6.13;;;3.70;;
7515;SDS011;3799;47.184;8.538;2023-08-20T04:39:00;5.63;;;3.67;;
7515;SDS011;3799;47.184;8.538;2023-08-20T04:41:51;6.32;;;3.60;;
7515;SDS011;3799;47.184;8.538;2023-08-20T04:44:36;7.82;;;4.22;;
7515;SDS011;3799;47.184;8.538;2023-08-20T04:47:19;7.93;;;3.80;;
7515;SDS011;3799;47.184;8.538;2023-08-20T04:49:46;7.13;;;4.00;;
7515;SDS011;3799;47.184;8.538;2023-08-20T04:52:19;7.45;;;3.72;;
7515;SDS011;3799;47.184;8.538;2023-08-20T04:54:53;6.25;;;4.03;;
7515;SDS011;3799;47.184;8.538;2023-08-20T04:57:36;7.72;;;3.55;;
7515;SDS011;3799;47.184;8.538;2023-08-20T05:03:46;4.93;;;3.70;;
7515;SDS011;3799;47.184;8.538;2023-08-20T05:06:14;7.78;;;3.60;;
7515;SDS011;3799;47.184;8.538;2023-08-20T05:08:42;7.95;;;3.95;;
7515;SDS011;3799;47.184;8.538;2023-08-20T05:11:13;6.50;;;3.90;;
7515;SDS011;3799;47.184;8.538;2023-08-20T05:13:40;8.85;;;3.78;;
7515;SDS011;3799;47.184;8.538;2023-08-20T05:16:11;8.32;;;4.20;;
7515;SDS011;3799;47.184;8.538;2023-08-20T05:18:42;7.95;;;3.60;;
7515;SDS011;3799;47.184;8.538;2023-08-20T05:21:32;10.57;;;3.67;;
7515;SDS011;3799;47.184;8.538;2023-08-20T05:24:13;5.78;;;3.45;;
7515;SDS011;3799;47.184;8.538;2023-08-20T05:26:49;5.57;;;3.70;;
7515;SDS011;3799;47.184;8.538;2023-08-20T05:29:39;7.40;;;4.38;;
7515;SDS011;3799;47.184;8.538;2023-08-20T05:32:07;6.57;;;3.90;;
7515;SDS011;3799;47.184;8.538;2023-08-20T05:34:35;6.78;;;3.78;;
7515;SDS011;3799;47.184;8.538;2023-08-20T05:37:06;4.85;;;3.50;;
7515;SDS011;3799;47.184;8.538;2023-08-20T05:39:40;7.80;;;3.75;;
7515;SDS011;3799;47.184;8.538;2023-08-20T05:42:08;5.47;;;3.53;;
7515;SDS011;3799;47.184;8.538;2023-08-20T05:44:37;9.32;;;5.18;;
7515;SDS011;3799;47.184;8.538;2023-08-20T05:47:04;6.45;;;5.05;;
7515;SDS011;3799;47.184;8.538;2023-08-20T05:49:32;10.73;;;5.22;;
7515;SDS011;3799;47.184;8.538;2023-08-20T05:52:04;14.27;;;6.18;;
7515;SDS011;3799;47.184;8.538;2023-08-20T05:54:33;8.70;;;5.13;;
7515;SDS011;3799;47.184;8.538;2023-08-20T05:57:00;10.75;;;5.82;;
7515;SDS011;3799;47.184;8.538;2023-08-20T05:59:31;10.75;;;5.93;;
7515;SDS011;3799;47.184;8.538;2023-08-20T06:02:03;9.15;;;4.97;;
7515;SDS011;3799;47.184;8.538;2023-08-20T06:04:36;8.70;;;5.18;;
7515;SDS011;3799;47.184;8.538;2023-08-20T06:07:27;8.07;;;4.47;;
7515;SDS011;3799;47.184;8.538;2023-08-20T06:09:54;12.48;;;5.63;;
7515;SDS011;3799;47.184;8.538;2023-08-20T06:12:31;8.82;;;4.90;;
7515;SDS011;3799;47.184;8.538;2023-08-20T06:15:17;9.50;;;4.88;;
7515;SDS011;3799;47.184;8.538;2023-08-20T06:17:51;10.25;;;5.35;;
7515;SDS011;3799;47.184;8.538;2023-08-20T06:22:50;9.20;;;6.20;;
7515;SDS011;3799;47.184;8.538;2023-08-20T06:25:25;10.43;;;6.57;;
7515;SDS011;3799;47.184;8.538;2023-08-20T06:27:54;8.50;;;5.65;;
7515;SDS011;3799;47.184;8.538;2023-08-20T06:30:24;7.40;;;5.40;;
7515;SDS011;3799;47.184;8.538;2023-08-20T06:32:54;9.50;;;5.47;;
7515;SDS011;3799;47.184;8.538;2023-08-20T06:35:31;9.68;;;5.75;;
7515;SDS011;3799;47.184;8.538;2023-08-20T06:37:58;8.75;;;5.78;;
7515;SDS011;3799;47.184;8.538;2023-08-20T06:40:43;7.80;;;5.53;;
7515;SDS011;3799;47.184;8.538;2023-08-20T06:43:14;10.70;;;5.82;;
7515;SDS011;3799;47.184;8.538;2023-08-20T06:45:47;8.93;;;6.20;;
7515;SDS011;3799;47.184;8.538;2023-08-20T06:48:31;8.45;;;5.90;;
7515;SDS011;3799;47.184;8.538;2023-08-20T06:53:43;8.93;;;5.97;;
7515;SDS011;3799;47.184;8.538;2023-08-20T06:56:12;12.60;;;5.60;;
7515;SDS011;3799;47.184;8.538;2023-08-20T06:58:46;10.23;;;5.43;;
7515;SDS011;3799;47.184;8.538;2023-08-20T07:01:14;6.57;;;5.28;;
7515;SDS011;3799;47.184;8.538;2023-08-20T07:03:43;10.25;;;6.18;;
7515;SDS011;3799;47.184;8.538;2023-08-20T07:06:10;8.57;;;5.95;;
7515;SDS011;3799;47.184;8.538;2023-08-20T07:08:38;10.65;;;6.13;;
7515;SDS011;3799;47.184;8.538;2023-08-20T07:11:06;9.55;;;5.68;;
7515;SDS011;3799;47.184;8.538;2023-08-20T07:13:33;7.70;;;5.57;;
7515;SDS011;3799;47.184;8.538;2023-08-20T07:16:01;10.10;;;5.10;;
7515;SDS011;3799;47.184;8.538;2023-08-20T07:18:29;7.80;;;5.60;;
7515;SDS011;3799;47.184;8.538;2023-08-20T07:20:56;6.25;;;4.72;;
7515;SDS011;3799;47.184;8.538;2023-08-20T07:23:24;7.43;;;5.22;;
7515;SDS011;3799;47.184;8.538;2023-08-20T07:26:03;9.25;;;5.38;;
7515;SDS011;3799;47.184;8.538;2023-08-20T07:28:31;7.35;;;4.80;;
7515;SDS011;3799;47.184;8.538;2023-08-20T07:31:17;7.95;;;5.32;;
7515;SDS011;3799;47.184;8.538;2023-08-20T07:33:48;6.97;;;4.60;;
7515;SDS011;3799;47.184;8.538;2023-08-20T07:36:16;8.82;;;4.85;;
7515;SDS011;3799;47.184;8.538;2023-08-20T07:38:43;6.75;;;5.00;;
7515;SDS011;3799;47.184;8.538;2023-08-20T07:41:11;8.73;;;4.75;;
7515;SDS011;3799;47.184;8.538;2023-08-20T07:43:39;7.15;;;5.50;;
7515;SDS011;3799;47.184;8.538;2023-08-20T07:46:07;6.65;;;5.20;;
7515;SDS011;3799;47.184;8.538;2023-08-20T07:48:36;9.00;;;5.30;;
7515;SDS011;3799;47.184;8.538;2023-08-20T07:51:03;6.10;;;4.88;;
7515;SDS011;3799;47.184;8.538;2023-08-20T07:53:31;9.00;;;5.38;;
7515;SDS011;3799;47.184;8.538;2023-08-20T07:56:01;5.78;;;4.50;;
7515;SDS011;3799;47.184;8.538;2023-08-20T07:58:29;7.28;;;4.55;;
7515;SDS011;3799;47.184;8.538;2023-08-20T08:00:56;5.90;;;5.00;;
7515;SDS011;3799;47.184;8.538;2023-08-20T08:03:25;11.27;;;5.13;;
7515;SDS011;3799;47.184;8.538;2023-08-20T08:05:56;7.93;;;4.28;;
7515;SDS011;3799;47.184;8.538;2023-08-20T08:08:23;6.85;;;5.13;;
7515;SDS011;3799;47.184;8.538;2023-08-20T08:10:50;10.15;;;5.03;;
7515;SDS011;3799;47.184;8.538;2023-08-20T08:13:19;8.43;;;4.78;;
7515;SDS011;3799;47.184;8.538;2023-08-20T08:15:47;6.90;;;4.72;;
7515;SDS011;3799;47.184;8.538;2023-08-20T08:18:15;7.15;;;4.57;;
7515;SDS011;3799;47.184;8.538;2023-08-20T08:20:43;7.38;;;4.72;;
7515;SDS011;3799;47.184;8.538;2023-08-20T08:23:10;9.18;;;5.18;;
7515;SDS011;3799;47.184;8.538;2023-08-20T08:25:37;13.13;;;5.75;;
7515;SDS011;3799;47.184;8.538;2023-08-20T08:28:05;6.70;;;5.45;;
7515;SDS011;3799;47.184;8.538;2023-08-20T08:30:32;7.30;;;6.18;;
7515;SDS011;3799;47.184;8.538;2023-08-20T08:32:59;9.85;;;5.65;;
7515;SDS011;3799;47.184;8.538;2023-08-20T08:35:26;15.85;;;6.35;;
7515;SDS011;3799;47.184;8.538;2023-08-20T08:37:54;10.82;;;4.55;;
7515;SDS011;3799;47.184;8.538;2023-08-20T08:40:28;11.02;;;5.60;;
7515;SDS011;3799;47.184;8.538;2023-08-20T08:42:57;7.38;;;4.90;;
7515;SDS011;3799;47.184;8.538;2023-08-20T08:45:24;8.60;;;4.93;;
7515;SDS011;3799;47.184;8.538;2023-08-20T08:47:53;5.10;;;4.22;;
7515;SDS011;3799;47.184;8.538;2023-08-20T08:50:24;6.20;;;4.53;;
7515;SDS011;3799;47.184;8.538;2023-08-20T08:52:52;7.72;;;5.45;;
7515;SDS011;3799;47.184;8.538;2023-08-20T08:55:21;8.55;;;5.35;;
7515;SDS011;3799;47.184;8.538;2023-08-20T08:57:49;9.10;;;5.10;;
7515;SDS011;3799;47.184;8.538;2023-08-20T09:00:19;6.20;;;3.92;;
7515;SDS011;3799;47.184;8.538;2023-08-20T09:02:47;5.35;;;3.92;;
7515;SDS011;3799;47.184;8.538;2023-08-20T09:05:18;9.73;;;5.45;;
7515;SDS011;3799;47.184;8.538;2023-08-20T09:07:48;7.47;;;3.97;;
7515;SDS011;3799;47.184;8.538;2023-08-20T09:10:25;11.40;;;4.50;;
7515;SDS011;3799;47.184;8.538;2023-08-20T09:12:57;6.82;;;3.53;;
7515;SDS011;3799;47.184;8.538;2023-08-20T09:15:36;9.93;;;4.32;;
7515;SDS011;3799;47.184;8.538;2023-08-20T09:18:09;8.25;;;4.40;;
7515;SDS011;3799;47.184;8.538;2023-08-20T09:20:39;7.22;;;4.72;;
7515;SDS011;3799;47.184;8.538;2023-08-20T09:23:21;6.18;;;3.90;;
7515;SDS011;3799;47.184;8.538;2023-08-20T09:25:48;5.93;;;4.22;;
7515;SDS011;3799;47.184;8.538;2023-08-20T09:28:16;7.32;;;4.15;;
7515;SDS011;3799;47.184;8.538;2023-08-20T09:30:58;6.45;;;4.65;;
7515;SDS011;3799;47.184;8.538;2023-08-20T09:33:29;6.78;;;3.38;;
7515;SDS011;3799;47.184;8.538;2023-08-20T09:35:58;8.10;;;4.80;;
7515;SDS011;3799;47.184;8.538;2023-08-20T09:38:26;7.60;;;4.03;;
7515;SDS011;3799;47.184;8.538;2023-08-20T09:40:59;10.52;;;4.75;;
7515;SDS011;3799;47.184;8.538;2023-08-20T09:43:27;11.13;;;5.10;;
7515;SDS011;3799;47.184;8.538;2023-08-20T09:45:57;7.97;;;4.53;;
7515;SDS011;3799;47.184;8.538;2023-08-20T09:48:29;6.35;;;4.35;;
7515;SDS011;3799;47.184;8.538;2023-08-20T09:51:04;8.48;;;4.32;;
7515;SDS011;3799;47.184;8.538;2023-08-20T09:53:50;8.77;;;4.55;;
7515;SDS011;3799;47.184;8.538;2023-08-20T09:56:30;7.75;;;4.20;;
7515;SDS011;3799;47.184;8.538;2023-08-20T09:59:04;6.30;;;4.55;;
7515;SDS011;3799;47.184;8.538;2023-08-20T10:01:32;8.18;;;4.45;;
7515;SDS011;3799;47.184;8.538;2023-08-20T10:04:01;8.48;;;4.35;;
7515;SDS011;3799;47.184;8.538;2023-08-20T10:06:30;8.32;;;4.28;;
7515;SDS011;3799;47.184;8.538;2023-08-20T10:08:59;8.32;;;4.47;;
7515;SDS011;3799;47.184;8.538;2023-08-20T10:11:27;8.55;;;5.15;;
7515;SDS011;3799;47.184;8.538;2023-08-20T10:13:55;6.97;;;4.70;;
7515;SDS011;3799;47.184;8.538;2023-08-20T10:16:22;5.90;;;4.38;;
7515;SDS011;3799;47.184;8.538;2023-08-20T10:18:53;9.90;;;4.28;;
7515;SDS011;3799;47.184;8.538;2023-08-20T10:21:24;9.05;;;4.25;;
7515;SDS011;3799;47.184;8.538;2023-08-20T10:23:53;8.25;;;5.00;;
7515;SDS011;3799;47.184;8.538;2023-08-20T10:26:20;11.00;;;4.70;;
7515;SDS011;3799;47.184;8.538;2023-08-20T10:28:51;9.38;;;4.65;;
7515;SDS011;3799;47.184;8.538;2023-08-20T10:31:45;8.05;;;4.88;;
7515;SDS011;3799;47.184;8.538;2023-08-20T10:34:31;8.20;;;4.18;;
7515;SDS011;3799;47.184;8.538;2023-08-20T10:37:13;10.25;;;4.55;;
7515;SDS011;3799;47.184;8.538;2023-08-20T10:39:41;9.27;;;4.25;;
7515;SDS011;3799;47.184;8.538;2023-08-20T10:48:02;7.53;;;4.53;;
7515;SDS011;3799;47.184;8.538;2023-08-20T10:50:41;5.97;;;4.18;;
7515;SDS011;3799;47.184;8.538;2023-08-20T10:53:21;8.48;;;4.40;;
7515;SDS011;3799;47.184;8.538;2023-08-20T10:55:55;5.40;;;3.92;;
7515;SDS011;3799;47.184;8.538;2023-08-20T10:58:55;12.07;;;5.40;;
7515;SDS011;3799;47.184;8.538;2023-08-20T11:01:32;8.25;;;4.18;;
7515;SDS011;3799;47.184;8.538;2023-08-20T11:04:00;6.75;;;4.32;;
7515;SDS011;3799;47.184;8.538;2023-08-20T11:06:37;5.25;;;3.72;;
7515;SDS011;3799;47.184;8.538;2023-08-20T11:09:08;5.38;;;3.65;;
7515;SDS011;3799;47.184;8.538;2023-08-20T11:11:53;6.15;;;4.15;;
7515;SDS011;3799;47.184;8.538;2023-08-20T11:14:25;6.90;;;4.47;;
7515;SDS011;3799;47.184;8.538;2023-08-20T11:16:53;5.57;;;3.83;;
7515;SDS011;3799;47.184;8.538;2023-08-20T11:19:30;9.25;;;3.90;;
7515;SDS011;3799;47.184;8.538;2023-08-20T11:22:01;7.35;;;3.70;;
7515;SDS011;3799;47.184;8.538;2023-08-20T11:24:30;6.63;;;3.88;;
7515;SDS011;3799;47.184;8.538;2023-08-20T11:27:09;5.78;;;3.88;;
7515;SDS011;3799;47.184;8.538;2023-08-20T11:29:44;6.63;;;3.97;;
7515;SDS011;3799;47.184;8.538;2023-08-20T11:32:20;7.80;;;3.58;;
7515;SDS011;3799;47.184;8.538;2023-08-20T11:34:49;9.23;;;4.25;;
7515;SDS011;3799;47.184;8.538;2023-08-20T11:37:27;6.38;;;4.10;;
7515;SDS011;3799;47.184;8.538;2023-08-20T11:40:15;11.32;;;4.68;;
7515;SDS011;3799;47.184;8.538;2023-08-20T11:42:54;7.40;;;4.10;;
7515;SDS011;3799;47.184;8.538;2023-08-20T11:45:49;7.97;;;4.38;;
7515;SDS011;3799;47.184;8.538;2023-08-20T11:48:24;8.15;;;4.10;;
7515;SDS011;3799;47.184;8.538;2023-08-20T11:51:07;10.15;;;4.60;;
7515;SDS011;3799;47.184;8.538;2023-08-20T11:53:36;8.27;;;3.85;;
7515;SDS011;3799;47.184;8.538;2023-08-20T11:56:12;8.82;;;4.10;;
7515;SDS011;3799;47.184;8.538;2023-08-20T11:58:43;7.57;;;3.60;;
7515;SDS011;3799;47.184;8.538;2023-08-20T12:01:29;8.10;;;4.53;;
7515;SDS011;3799;47.184;8.538;2023-08-20T12:04:09;8.18;;;4.38;;
7515;SDS011;3799;47.184;8.538;2023-08-20T12:06:52;11.20;;;4.20;;
7515;SDS011;3799;47.184;8.538;2023-08-20T12:09:55;7.32;;;4.03;;
7515;SDS011;3799;47.184;8.538;2023-08-20T12:12:26;7.38;;;4.53;;
7515;SDS011;3799;47.184;8.538;2023-08-20T12:15:27;6.47;;;3.92;;
7515;SDS011;3799;47.184;8.538;2023-08-20T12:18:04;7.28;;;3.97;;
7515;SDS011;3799;47.184;8.538;2023-08-20T12:20:55;12.90;;;4.22;;
7515;SDS011;3799;47.184;8.538;2023-08-20T12:23:29;6.28;;;3.58;;
7515;SDS011;3799;47.184;8.538;2023-08-20T12:26:14;6.72;;;4.05;;
7515;SDS011;3799;47.184;8.538;2023-08-20T12:28:45;7.68;;;3.75;;
7515;SDS011;3799;47.184;8.538;2023-08-20T12:31:12;6.70;;;3.40;;
7515;SDS011;3799;47.184;8.538;2023-08-20T12:33:43;7.80;;;3.88;;
7515;SDS011;3799;47.184;8.538;2023-08-20T12:36:15;10.52;;;4.03;;
7515;SDS011;3799;47.184;8.538;2023-08-20T12:38:42;5.22;;;3.60;;
7515;SDS011;3799;47.184;8.538;2023-08-20T12:41:13;8.18;;;3.80;;
7515;SDS011;3799;47.184;8.538;2023-08-20T12:43:45;7.53;;;3.75;;
7515;SDS011;3799;47.184;8.538;2023-08-20T12:46:12;6.57;;;3.58;;
7515;SDS011;3799;47.184;8.538;2023-08-20T12:48:44;6.25;;;3.63;;
7515;SDS011;3799;47.184;8.538;2023-08-20T12:51:11;11.10;;;3.83;;
7515;SDS011;3799;47.184;8.538;2023-08-20T12:53:54;12.52;;;4.05;;
7515;SDS011;3799;47.184;8.538;2023-08-20T12:56:21;5.00;;;3.53;;
7515;SDS011;3799;47.184;8.538;2023-08-20T12:59:00;8.32;;;3.40;;
7515;SDS011;3799;47.184;8.538;2023-08-20T13:01:29;5.93;;;3.60;;
7515;SDS011;3799;47.184;8.538;2023-08-20T13:03:57;7.25;;;3.53;;
7515;SDS011;3799;47.184;8.538;2023-08-20T13:06:24;5.90;;;3.45;;
7515;SDS011;3799;47.184;8.538;2023-08-20T13:08:54;12.13;;;4.35;;
7515;SDS011;3799;47.184;8.538;2023-08-20T13:11:32;11.15;;;3.85;;
7515;SDS011;3799;47.184;8.538;2023-08-20T13:13:59;7.82;;;4.10;;
7515;SDS011;3799;47.184;8.538;2023-08-20T13:16:30;10.15;;;3.75;;
7515;SDS011;3799;47.184;8.538;2023-08-20T13:18:58;9.10;;;4.63;;
7515;SDS011;3799;47.184;8.538;2023-08-20T13:21:25;11.77;;;4.72;;
7515;SDS011;3799;47.184;8.538;2023-08-20T13:23:53;7.53;;;3.58;;
7515;SDS011;3799;47.184;8.538;2023-08-20T13:26:20;7.75;;;3.95;;
7515;SDS011;3799;47.184;8.538;2023-08-20T13:28:49;6.47;;;3.63;;
7515;SDS011;3799;47.184;8.538;2023-08-20T13:31:16;9.85;;;4.00;;
7515;SDS011;3799;47.184;8.538;2023-08-20T13:33:57;8.95;;;4.53;;
7515;SDS011;3799;47.184;8.538;2023-08-20T13:36:24;9.48;;;3.60;;
7515;SDS011;3799;47.184;8.538;2023-08-20T13:38:51;7.57;;;3.90;;
7515;SDS011;3799;47.184;8.538;2023-08-20T13:41:19;8.43;;;4.05;;
7515;SDS011;3799;47.184;8.538;2023-08-20T13:43:49;6.55;;;4.30;;
7515;SDS011;3799;47.184;8.538;2023-08-20T13:46:35;6.10;;;3.97;;
7515;SDS011;3799;47.184;8.538;2023-08-20T13:49:04;8.60;;;3.63;;
7515;SDS011;3799;47.184;8.538;2023-08-20T13:51:40;12.82;;;3.97;;
7515;SDS011;3799;47.184;8.538;2023-08-20T13:54:07;9.20;;;3.95;;
7515;SDS011;3799;47.184;8.538;2023-08-20T13:56:35;7.60;;;3.10;;
7515;SDS011;3799;47.184;8.538;2023-08-20T13:59:02;6.10;;;4.28;;
7515;SDS011;3799;47.184;8.538;2023-08-20T14:01:30;9.05;;;4.32;;
7515;SDS011;3799;47.184;8.538;2023-08-20T14:03:58;6.63;;;3.88;;
7515;SDS011;3799;47.184;8.538;2023-08-20T14:06:32;7.15;;;3.60;;
7515;SDS011;3799;47.184;8.538;2023-08-20T14:09:01;10.52;;;3.58;;
7515;SDS011;3799;47.184;8.538;2023-08-20T14:11:31;7.45;;;4.25;;
7515;SDS011;3799;47.184;8.538;2023-08-20T14:13:59;8.63;;;3.85;;
7515;SDS011;3799;47.184;8.538;2023-08-20T14:16:26;7.30;;;4.20;;
7515;SDS011;3799;47.184;8.538;2023-08-20T14:19:02;6.05;;;3.55;;
7515;SDS011;3799;47.184;8.538;2023-08-20T14:21:38;10.05;;;4.00;;
7515;SDS011;3799;47.184;8.538;2023-08-20T14:24:05;9.48;;;4.05;;
7515;SDS011;3799;47.184;8.538;2023-08-20T14:26:44;5.25;;;3.63;;
7515;SDS011;3799;47.184;8.538;2023-08-20T14:29:11;12.55;;;3.85;;
7515;SDS011;3799;47.184;8.538;2023-08-20T14:31:41;5.75;;;4.32;;
7515;SDS011;3799;47.184;8.538;2023-08-20T14:34:15;9.35;;;3.65;;
7515;SDS011;3799;47.184;8.538;2023-08-20T14:36:43;5.32;;;3.40;;
7515;SDS011;3799;47.184;8.538;2023-08-20T14:39:23;8.48;;;3.40;;
7515;SDS011;3799;47.184;8.538;2023-08-20T14:41:53;7.05;;;3.83;;
7515;SDS011;3799;47.184;8.538;2023-08-20T14:44:21;7.47;;;3.40;;
7515;SDS011;3799;47.184;8.538;2023-08-20T14:46:49;9.63;;;3.80;;
7515;SDS011;3799;47.184;8.538;2023-08-20T14:49:18;5.90;;;3.38;;
7515;SDS011;3799;47.184;8.538;2023-08-20T14:51:45;7.30;;;3.42;;
7515;SDS011;3799;47.184;8.538;2023-08-20T14:54:12;6.70;;;3.65;;
7515;SDS011;3799;47.184;8.538;2023-08-20T14:56:41;7.50;;;3.40;;
7515;SDS011;3799;47.184;8.538;2023-08-20T14:59:13;7.38;;;3.28;;
7515;SDS011;3799;47.184;8.538;2023-08-20T15:01:40;5.80;;;3.22;;
7515;SDS011;3799;47.184;8.538;2023-08-20T15:04:10;6.30;;;2.92;;
7515;SDS011;3799;47.184;8.538;2023-08-20T15:06:39;5.65;;;3.63;;
7515;SDS011;3799;47.184;8.538;2023-08-20T15:09:16;4.28;;;3.30;;
7515;SDS011;3799;47.184;8.538;2023-08-20T15:11:47;5.65;;;3.45;;
7515;SDS011;3799;47.184;8.538;2023-08-20T15:14:14;10.68;;;3.33;;
7515;SDS011;3799;47.184;8.538;2023-08-20T15:16:45;8.90;;;3.85;;
7515;SDS011;3799;47.184;8.538;2023-08-20T15:19:12;9.40;;;4.00;;
7515;SDS011;3799;47.184;8.538;2023-08-20T15:21:40;7.07;;;3.78;;
7515;SDS011;3799;47.184;8.538;2023-08-20T15:24:19;6.85;;;3.20;;
7515;SDS011;3799;47.184;8.538;2023-08-20T15:26:48;6.65;;;3.53;;
7515;SDS011;3799;47.184;8.538;2023-08-20T15:29:19;5.78;;;3.20;;
7515;SDS011;3799;47.184;8.538;2023-08-20T15:31:50;8.23;;;3.78;;
7515;SDS011;3799;47.184;8.538;2023-08-20T15:34:18;7.18;;;3.72;;
7515;SDS011;3799;47.184;8.538;2023-08-20T15:36:50;5.60;;;3.60;;
7515;SDS011;3799;47.184;8.538;2023-08-20T15:39:18;8.55;;;3.72;;
7515;SDS011;3799;47.184;8.538;2023-08-20T15:41:45;8.98;;;3.80;;
7515;SDS011;3799;47.184;8.538;2023-08-20T15:44:15;6.63;;;3.63;;
7515;SDS011;3799;47.184;8.538;2023-08-20T15:46:42;6.20;;;3.83;;
7515;SDS011;3799;47.184;8.538;2023-08-20T15:49:13;6.78;;;3.55;;
7515;SDS011;3799;47.184;8.538;2023-08-20T15:51:43;7.10;;;3.15;;
7515;SDS011;3799;47.184;8.538;2023-08-20T15:54:16;9.40;;;3.42;;
7515;SDS011;3799;47.184;8.538;2023-08-20T15:56:45;5.10;;;3.30;;
7515;SDS011;3799;47.184;8.538;2023-08-20T15:59:13;7.05;;;3.63;;
7515;SDS011;3799;47.184;8.538;2023-08-20T16:01:46;6.30;;;3.65;;
7515;SDS011;3799;47.184;8.538;2023-08-20T16:04:14;5.22;;;3.28;;
7515;SDS011;3799;47.184;8.538;2023-08-20T16:06:43;6.18;;;4.20;;
7515;SDS011;3799;47.184;8.538;2023-08-20T16:09:11;7.72;;;3.58;;
7515;SDS011;3799;47.184;8.538;2023-08-20T16:11:39;6.95;;;4.10;;
7515;SDS011;3799;47.184;8.538;2023-08-20T16:14:06;9.77;;;4.60;;
7515;SDS011;3799;47.184;8.538;2023-08-20T16:16:33;9.95;;;4.32;;
7515;SDS011;3799;47.184;8.538;2023-08-20T16:19:01;7.25;;;3.58;;
7515;SDS011;3799;47.184;8.538;2023-08-20T16:21:30;5.07;;;3.85;;